Cool II — MBSH5 — position and weather

sailwx.info

Track history (hours):
 
Tides and Currents Weather Stations Pressure Air Temp Water Temp Dewpoint Dewpoint Depression Visibility Wind Speed Wind Dir Waves Ship Positions

Cool II

Last reported at 2018-May-11 12:59 UTC. Time now 2018-Jun-22 11:26 UTC.
Position N 37°53' E 023°44'.
Warning: this ship's position is 41 days out of date.

Length 16 m.

Type: Pleasure craft. MMSI: 232010666.

Date/timePositionNaut miles runAvg speedWind from/ knotsBaromVisibWave heightAir tempDewpointWater temp
2018-May-11 12:59N 37°53' E 023°44'0 0.0
2018-May-11 12:26N 37°53' E 023°44'0 0.0
2018-May-11 11:56N 37°53' E 023°44'0 0.7
2018-May-11 11:27N 37°53' E 023°43'82 5.1
2018-May-10 19:34N 37°25' E 025°20'0 0.0
2018-May-10 19:25N 37°25' E 025°20'0 0.0
2018-May-10 17:58N 37°25' E 025°20'0 0.0
2018-May-10 17:28N 37°25' E 025°20'0 0.1
2018-May-10 16:58N 37°25' E 025°20'5 3.7
2018-May-10 15:38N 37°23' E 025°14'0 1.0
2018-May-10 15:23N 37°23' E 025°14'2 3.8
2018-May-10 14:57N 37°24' E 025°16'0 0.0
2018-May-10 14:21N 37°24' E 025°16'0 0.0
2018-May-10 14:00N 37°24' E 025°16'0 0.0
2018-May-10 13:27N 37°24' E 025°16'0 0.0
2018-May-10 12:54N 37°24' E 025°16'0 0.0
2018-May-10 12:30N 37°24' E 025°16'5 0.1
2018-May-08 15:42N 37°24' E 025°22'1 7.2
2018-May-08 15:30N 37°25' E 025°23'1 0.3
2018-May-08 11:18N 37°24' E 025°22'4 8.5
2018-May-08 10:52N 37°23' E 025°18'  
2018-May-04 17:56N 37°25' E 025°24'0 0.0
2018-May-04 15:17N 37°25' E 025°24'0 0.0
2018-May-04 14:53N 37°25' E 025°24'2 5.9
2018-May-04 14:28N 37°24' E 025°21'8226.3
2018-May-04 11:21N 37°51' E 023°43'1 1.4
2018-May-04 10:28N 37°53' E 023°44'0 0.0
2018-May-04 09:58N 37°53' E 023°44'  
Track history (hours):
 
Tides and Currents Weather Stations Pressure Air Temp Water Temp Dewpoint Dewpoint Depression Visibility Wind Speed Wind Dir Waves Ship Positions

Cool II

Last reported at 2018-May-11 12:59 UTC. Time now 2018-Jun-22 11:26 UTC.
Position N 37°53' E 023°44'.
Warning: this ship's position is 41 days out of date.

Length 16 m.

Type: Pleasure craft. MMSI: 232010666.

Date/timePositionNaut miles runAvg speedWind from/ knotsBaromVisibWave heightAir tempDewpointWater temp
2018-May-11 12:59N 37°53' E 023°44'0 0.0
2018-May-11 12:26N 37°53' E 023°44'0 0.0
2018-May-11 11:56N 37°53' E 023°44'0 0.7
2018-May-11 11:27N 37°53' E 023°43'82 5.1
2018-May-10 19:34N 37°25' E 025°20'0 0.0
2018-May-10 19:25N 37°25' E 025°20'0 0.0
2018-May-10 17:58N 37°25' E 025°20'0 0.0
2018-May-10 17:28N 37°25' E 025°20'0 0.1
2018-May-10 16:58N 37°25' E 025°20'5 3.7
2018-May-10 15:38N 37°23' E 025°14'0 1.0
2018-May-10 15:23N 37°23' E 025°14'2 3.8
2018-May-10 14:57N 37°24' E 025°16'0 0.0
2018-May-10 14:21N 37°24' E 025°16'0 0.0
2018-May-10 14:00N 37°24' E 025°16'0 0.0
2018-May-10 13:27N 37°24' E 025°16'0 0.0
2018-May-10 12:54N 37°24' E 025°16'0 0.0
2018-May-10 12:30N 37°24' E 025°16'5 0.1
2018-May-08 15:42N 37°24' E 025°22'1 7.2
2018-May-08 15:30N 37°25' E 025°23'1 0.3
2018-May-08 11:18N 37°24' E 025°22'4 8.5
2018-May-08 10:52N 37°23' E 025°18'  
2018-May-04 17:56N 37°25' E 025°24'0 0.0
2018-May-04 15:17N 37°25' E 025°24'0 0.0
2018-May-04 14:53N 37°25' E 025°24'2 5.9
2018-May-04 14:28N 37°24' E 025°21'8226.3
2018-May-04 11:21N 37°51' E 023°43'1 1.4
2018-May-04 10:28N 37°53' E 023°44'0 0.0
2018-May-04 09:58N 37°53' E 023°44'  

Dump ship's entire track history